createdAt,value
2022-08-28T00:01:09.371Z,63.70
2022-08-28T00:03:38.098Z,63.30
2022-08-28T00:06:07.248Z,63.70
2022-08-28T00:08:35.911Z,63.80
2022-08-28T00:11:06.259Z,64.00
2022-08-28T00:13:34.657Z,64.00
2022-08-28T00:16:03.128Z,67.90
2022-08-28T00:18:33.839Z,66.30
2022-08-28T00:21:02.720Z,65.00
2022-08-28T00:23:42.374Z,64.40
2022-08-28T00:26:32.562Z,64.20
2022-08-28T00:29:00.197Z,64.20
2022-08-28T00:31:28.796Z,64.20
2022-08-28T00:33:57.372Z,64.40
2022-08-28T00:36:25.753Z,64.40
2022-08-28T00:38:54.122Z,64.40
2022-08-28T00:41:24.969Z,64.40
2022-08-28T00:44:10.524Z,64.50
2022-08-28T00:46:43.405Z,64.70
2022-08-28T00:49:12.790Z,64.70
2022-08-28T00:51:59.498Z,64.80
2022-08-28T00:54:29.748Z,64.90
2022-08-28T00:57:03.758Z,64.90
2022-08-28T00:59:32.120Z,64.90
2022-08-28T01:02:01.139Z,64.90
2022-08-28T01:04:32.398Z,65.00
2022-08-28T01:07:05.380Z,65.10
2022-08-28T01:09:35.552Z,65.10
2022-08-28T01:12:10.464Z,65.10
2022-08-28T01:14:41.686Z,65.10
2022-08-28T01:17:11.207Z,65.10
2022-08-28T01:19:44.157Z,65.10
2022-08-28T01:22:25.673Z,65.10
2022-08-28T01:24:59.073Z,65.30
2022-08-28T01:27:27.707Z,65.20
2022-08-28T01:29:57.717Z,65.20
2022-08-28T01:32:32.088Z,65.20
2022-08-28T01:35:01.105Z,65.20
2022-08-28T01:37:29.821Z,65.20
2022-08-28T01:40:02.450Z,65.20
2022-08-28T01:42:30.817Z,65.20
2022-08-28T01:44:59.144Z,65.70
2022-08-28T01:47:27.464Z,65.20
2022-08-28T01:49:55.769Z,65.10
2022-08-28T01:52:26.525Z,65.20
2022-08-28T01:54:57.569Z,65.20
2022-08-28T01:57:27.909Z,65.30
2022-08-28T01:59:58.481Z,65.20
2022-08-28T02:02:27.038Z,65.20
2022-08-28T02:04:55.403Z,65.20
2022-08-28T02:07:23.790Z,65.20
2022-08-28T02:09:52.134Z,65.30
2022-08-28T02:12:20.867Z,65.20
2022-08-28T02:14:50.679Z,65.30
2022-08-28T02:17:19.024Z,65.40
2022-08-28T02:19:47.293Z,65.40
2022-08-28T02:22:20.230Z,65.50
2022-08-28T02:24:48.579Z,65.60
2022-08-28T02:27:16.881Z,65.60
2022-08-28T02:29:45.290Z,65.70
2022-08-28T02:32:15.226Z,65.80
2022-08-28T02:34:43.749Z,65.90
2022-08-28T02:37:13.351Z,65.90
2022-08-28T02:39:41.748Z,66.10
2022-08-28T02:42:10.044Z,66.10
2022-08-28T02:44:38.389Z,66.10
2022-08-28T02:47:08.824Z,66.20
2022-08-28T02:49:38.499Z,66.20
2022-08-28T02:52:07.143Z,66.30
2022-08-28T02:54:38.769Z,66.30
2022-08-28T02:57:08.227Z,66.30
2022-08-28T02:59:37.108Z,66.30
2022-08-28T03:02:07.301Z,65.80
2022-08-28T03:04:36.696Z,66.20
2022-08-28T03:07:09.340Z,66.30
2022-08-28T03:09:40.300Z,66.40
2022-08-28T03:12:09.662Z,66.40
2022-08-28T03:14:38.527Z,66.50
2022-08-28T03:17:07.921Z,66.60
2022-08-28T03:19:38.402Z,66.70
2022-08-28T03:22:08.080Z,66.70
2022-08-28T03:24:35.448Z,66.40
2022-08-28T03:27:03.802Z,66.80
2022-08-28T03:29:32.718Z,66.90
2022-08-28T03:32:01.041Z,67.10
2022-08-28T03:34:29.464Z,67.20
2022-08-28T03:36:57.771Z,67.30
2022-08-28T03:39:29.826Z,67.30
2022-08-28T03:41:58.294Z,67.40
2022-08-28T03:44:26.536Z,67.50
2022-08-28T03:46:54.910Z,67.40
2022-08-28T03:49:23.762Z,67.40
2022-08-28T03:51:52.355Z,67.40
2022-08-28T03:54:20.631Z,67.60
2022-08-28T03:56:50.446Z,67.60
2022-08-28T03:59:21.563Z,67.70
2022-08-28T04:01:55.164Z,67.80
2022-08-28T04:04:24.820Z,68.40
2022-08-28T04:06:53.348Z,67.90
2022-08-28T04:09:21.647Z,68.00
2022-08-28T04:11:52.852Z,68.10
2022-08-28T04:14:21.189Z,68.80
2022-08-28T04:16:49.718Z,68.10
2022-08-28T04:19:18.178Z,68.10
2022-08-28T04:21:46.637Z,68.10
2022-08-28T04:24:15.003Z,68.20
2022-08-28T04:26:46.078Z,68.20
2022-08-28T04:29:17.139Z,68.10
2022-08-28T04:31:47.777Z,68.10
2022-08-28T04:34:16.124Z,68.10
2022-08-28T04:36:44.708Z,68.10
2022-08-28T04:39:15.413Z,68.10
2022-08-28T04:41:43.739Z,68.20
2022-08-28T04:44:15.754Z,68.20
2022-08-28T04:46:47.341Z,68.30
2022-08-28T04:49:17.417Z,68.40
2022-08-28T04:51:47.049Z,68.40
2022-08-28T04:54:15.836Z,68.40
2022-08-28T04:56:44.263Z,68.50
2022-08-28T04:59:12.898Z,68.50
2022-08-28T05:01:43.781Z,68.50
2022-08-28T05:04:15.186Z,68.60
2022-08-28T05:06:46.428Z,68.70
2022-08-28T05:09:16.894Z,68.70
2022-08-28T05:11:45.909Z,68.80
2022-08-28T05:14:16.480Z,68.80
2022-08-28T05:16:48.595Z,68.90
2022-08-28T05:19:17.479Z,68.80
2022-08-28T05:21:45.743Z,68.80
2022-08-28T05:24:14.253Z,68.80
2022-08-28T05:26:44.900Z,68.80
2022-08-28T05:29:17.882Z,68.80
2022-08-28T05:31:47.844Z,68.80
2022-08-28T05:34:16.857Z,68.80
2022-08-28T05:36:45.118Z,68.70
2022-08-28T05:39:14.228Z,68.70
2022-08-28T05:41:44.556Z,68.70
2022-08-28T05:44:14.801Z,68.80
2022-08-28T05:46:48.785Z,68.80
2022-08-28T05:49:17.971Z,68.70
2022-08-28T05:51:47.463Z,68.70
2022-08-28T05:54:16.892Z,68.70
2022-08-28T05:56:46.653Z,68.60
2022-08-28T05:59:16.556Z,68.60
2022-08-28T06:01:46.570Z,68.70
2022-08-28T06:04:19.102Z,68.70
2022-08-28T06:06:49.473Z,68.70
2022-08-28T06:09:20.427Z,68.60
2022-08-28T06:11:49.805Z,68.60
2022-08-28T06:14:21.856Z,68.60
2022-08-28T06:16:52.437Z,68.50
2022-08-28T06:19:24.045Z,68.40
2022-08-28T06:21:57.318Z,68.30
2022-08-28T06:24:26.544Z,68.20
2022-08-28T06:26:56.486Z,68.10
2022-08-28T06:29:29.592Z,68.20
2022-08-28T06:32:00.341Z,68.10
2022-08-28T06:34:30.499Z,68.20
2022-08-28T06:36:58.884Z,68.30
2022-08-28T06:39:27.261Z,68.10
2022-08-28T06:41:57.693Z,68.10
2022-08-28T06:44:26.158Z,68.10
2022-08-28T06:46:55.922Z,67.90
2022-08-28T06:49:24.408Z,67.80
2022-08-28T06:51:57.139Z,67.80
2022-08-28T06:54:30.947Z,68.00
2022-08-28T06:56:59.330Z,68.00
2022-08-28T06:59:27.693Z,67.70
2022-08-28T07:01:56.398Z,70.80
2022-08-28T07:04:24.707Z,72.40
2022-08-28T07:06:56.501Z,69.30
2022-08-28T07:09:25.387Z,67.40
2022-08-28T07:11:54.378Z,66.30
2022-08-28T07:14:26.362Z,66.10
2022-08-28T07:16:55.438Z,65.90
2022-08-28T07:19:26.725Z,65.60
2022-08-28T07:21:56.848Z,65.20
2022-08-28T07:24:25.728Z,65.00
2022-08-28T07:26:54.504Z,65.00
2022-08-28T07:29:23.429Z,64.60
2022-08-28T07:31:56.169Z,63.90
2022-08-28T07:34:27.058Z,63.70
2022-08-28T07:37:04.335Z,63.20
2022-08-28T07:39:32.816Z,63.20
2022-08-28T07:42:01.270Z,63.20
2022-08-28T07:44:49.058Z,63.00
2022-08-28T07:47:18.979Z,62.80
2022-08-28T07:49:49.496Z,62.60
2022-08-28T07:52:21.175Z,62.60
2022-08-28T07:54:49.844Z,62.30
2022-08-28T07:57:20.611Z,62.10
2022-08-28T07:59:52.502Z,62.10
2022-08-28T08:02:23.834Z,61.50
2022-08-28T08:04:54.896Z,60.90
2022-08-28T08:07:24.709Z,60.50
2022-08-28T08:09:58.927Z,60.20
2022-08-28T08:12:27.904Z,60.20
2022-08-28T08:15:00.166Z,59.90
2022-08-28T08:17:30.576Z,58.90
2022-08-28T08:20:01.581Z,58.60
2022-08-28T08:22:31.349Z,57.00
2022-08-28T08:24:59.710Z,57.00
2022-08-28T08:27:28.634Z,56.80
2022-08-28T08:29:56.964Z,55.10
2022-08-28T08:32:30.875Z,54.20
2022-08-28T08:34:59.827Z,54.00
2022-08-28T08:37:28.300Z,54.80
2022-08-28T08:39:58.177Z,54.00
2022-08-28T08:42:28.936Z,54.20
2022-08-28T08:45:04.039Z,55.60
2022-08-28T08:47:41.231Z,53.80
2022-08-28T08:50:18.729Z,52.80
2022-08-28T08:52:58.598Z,52.90
2022-08-28T08:55:31.608Z,52.10
2022-08-28T08:58:07.744Z,51.90
2022-08-28T09:00:44.800Z,53.10
2022-08-28T09:03:22.280Z,52.00
2022-08-28T09:05:55.285Z,51.20
2022-08-28T09:08:35.138Z,50.10
2022-08-28T09:11:15.801Z,48.70
2022-08-28T09:13:53.588Z,48.80
2022-08-28T09:16:28.083Z,50.00
2022-08-28T09:19:00.665Z,49.60
2022-08-28T09:21:41.751Z,50.80
2022-08-28T09:24:21.219Z,48.60
2022-08-28T09:26:57.108Z,47.80
2022-08-28T09:29:30.303Z,48.60
2022-08-28T09:31:59.008Z,49.50
2022-08-28T09:34:38.145Z,51.40
2022-08-28T09:37:09.816Z,48.50
2022-08-28T09:39:45.583Z,46.80
2022-08-28T09:42:41.718Z,46.30
2022-08-28T09:45:18.662Z,45.90
2022-08-28T09:47:49.983Z,46.00
2022-08-28T09:50:41.762Z,45.70
2022-08-28T09:53:20.858Z,48.20
2022-08-28T09:56:15.602Z,45.80
2022-08-28T09:58:48.156Z,44.90
2022-08-28T10:01:35.941Z,45.50
2022-08-28T10:04:19.700Z,44.90
2022-08-28T10:06:53.218Z,45.40
2022-08-28T10:09:30.487Z,46.60
2022-08-28T10:12:11.218Z,45.10
2022-08-28T10:14:51.647Z,44.10
2022-08-28T10:17:32.006Z,43.00
2022-08-28T10:20:09.555Z,42.90
2022-08-28T10:22:45.287Z,42.30
2022-08-28T10:25:28.001Z,42.70
2022-08-28T10:28:02.684Z,42.50
2022-08-28T10:30:37.726Z,41.80
2022-08-28T10:33:20.769Z,40.60
2022-08-28T10:35:52.802Z,39.90
2022-08-28T10:38:25.112Z,39.80
2022-08-28T10:40:56.797Z,39.40
2022-08-28T10:43:28.483Z,40.00
2022-08-28T10:46:00.020Z,39.70
2022-08-28T10:48:29.799Z,39.30
2022-08-28T10:50:59.421Z,39.80
2022-08-28T10:53:29.370Z,39.80
2022-08-28T10:56:00.416Z,39.40
2022-08-28T10:58:29.726Z,39.30
2022-08-28T11:01:03.302Z,40.60
2022-08-28T11:03:40.472Z,41.30
2022-08-28T11:06:14.790Z,39.20
2022-08-28T11:08:43.705Z,38.60
2022-08-28T11:11:14.438Z,38.90
2022-08-28T11:13:53.693Z,39.30
2022-08-28T11:16:24.851Z,39.00
2022-08-28T11:19:04.364Z,38.70
2022-08-28T11:21:36.117Z,38.20
2022-08-28T11:24:07.127Z,37.90
2022-08-28T11:27:00.820Z,38.00
2022-08-28T11:29:58.336Z,38.40
2022-08-28T11:32:38.162Z,38.00
2022-08-28T11:35:39.403Z,37.60
2022-08-28T11:38:07.839Z,37.10
2022-08-28T11:40:54.675Z,36.60
2022-08-28T11:43:35.852Z,36.40
2022-08-28T11:46:24.753Z,36.50
2022-08-28T11:48:55.050Z,36.70
2022-08-28T11:51:33.997Z,36.70
2022-08-28T11:54:08.992Z,36.90
2022-08-28T11:56:41.885Z,36.60
2022-08-28T11:59:17.537Z,37.00
2022-08-28T12:01:45.752Z,37.10
2022-08-28T12:04:16.438Z,37.00
2022-08-28T12:06:49.448Z,37.20
2022-08-28T12:09:37.934Z,37.00
2022-08-28T12:12:06.844Z,37.40
2022-08-28T12:15:08.665Z,37.60
2022-08-28T12:17:48.666Z,37.40
2022-08-28T12:20:30.469Z,37.00
2022-08-28T12:22:59.512Z,36.90
2022-08-28T12:25:32.880Z,36.70
2022-08-28T12:28:04.865Z,36.80
2022-08-28T12:30:37.357Z,36.90
2022-08-28T12:33:12.650Z,37.10
2022-08-28T12:35:43.910Z,37.10
2022-08-28T12:38:19.530Z,36.80
2022-08-28T12:40:52.850Z,36.30
2022-08-28T12:43:29.490Z,35.90
2022-08-28T12:45:58.680Z,35.80
2022-08-28T12:48:27.697Z,36.00
2022-08-28T12:51:03.021Z,36.30
2022-08-28T12:53:39.866Z,36.20
2022-08-28T12:56:10.938Z,36.10
2022-08-28T12:58:41.278Z,37.00
2022-08-28T13:01:13.168Z,37.50
2022-08-28T13:03:48.060Z,38.00
2022-08-28T13:06:27.181Z,38.30
2022-08-28T13:09:01.675Z,38.30
2022-08-28T13:11:35.091Z,37.80
2022-08-28T13:14:04.448Z,37.10
2022-08-28T13:16:40.144Z,36.00
2022-08-28T13:19:27.284Z,37.60
2022-08-28T13:22:00.785Z,37.80
2022-08-28T13:24:42.362Z,36.10
2022-08-28T13:27:21.814Z,35.80
2022-08-28T13:30:00.620Z,35.80
2022-08-28T13:32:31.590Z,36.20
2022-08-28T13:35:16.713Z,36.20
2022-08-28T13:37:48.969Z,36.40
2022-08-28T13:40:53.475Z,36.40
2022-08-28T13:43:11.154Z,36.20
2022-08-28T13:45:42.700Z,35.90
2022-08-28T13:48:12.055Z,36.10
2022-08-28T13:50:45.678Z,35.90
2022-08-28T13:53:18.767Z,35.90
2022-08-28T13:55:51.364Z,35.80
2022-08-28T13:58:20.281Z,35.70
2022-08-28T14:00:51.806Z,35.60
2022-08-28T14:03:36.437Z,35.60
2022-08-28T14:06:07.132Z,35.90
2022-08-28T14:08:36.828Z,35.80
2022-08-28T14:11:07.242Z,35.50
2022-08-28T14:13:35.997Z,35.50
2022-08-28T14:16:06.212Z,35.60
2022-08-28T14:18:35.392Z,35.50
2022-08-28T14:21:07.405Z,35.80
2022-08-28T14:23:36.842Z,36.00
2022-08-28T14:26:06.188Z,36.30
2022-08-28T14:28:34.308Z,36.20
2022-08-28T14:31:02.475Z,36.20
2022-08-28T14:33:30.580Z,36.10
2022-08-28T14:36:07.401Z,35.70
2022-08-28T14:38:36.974Z,35.50
2022-08-28T14:41:08.504Z,35.50
2022-08-28T14:43:36.572Z,34.90
2022-08-28T14:46:11.444Z,35.30
2022-08-28T14:48:39.848Z,34.80
2022-08-28T14:51:08.164Z,34.70
2022-08-28T14:53:38.336Z,34.90
2022-08-28T14:56:09.530Z,35.40
2022-08-28T14:58:38.016Z,35.60
2022-08-28T15:01:06.181Z,35.80
2022-08-28T15:03:34.479Z,35.90
2022-08-28T15:06:03.282Z,35.80
2022-08-28T15:08:31.414Z,36.00
2022-08-28T15:11:06.103Z,35.90
2022-08-28T15:13:34.131Z,36.10
2022-08-28T15:16:03.503Z,36.40
2022-08-28T15:18:31.562Z,36.70
2022-08-28T15:21:02.031Z,37.00
2022-08-28T15:23:30.284Z,37.20
2022-08-28T15:26:01.413Z,37.30
2022-08-28T15:28:29.467Z,37.50
2022-08-28T15:30:57.580Z,37.80
2022-08-28T15:33:27.979Z,37.90
2022-08-28T15:35:56.683Z,37.90
2022-08-28T15:38:24.879Z,38.10
2022-08-28T15:41:12.249Z,38.10
2022-08-28T15:43:43.044Z,38.40
2022-08-28T15:46:18.290Z,38.60
2022-08-28T15:48:48.203Z,38.70
2022-08-28T15:51:23.875Z,38.90
2022-08-28T15:53:53.922Z,39.20
2022-08-28T15:56:22.404Z,39.20
2022-08-28T15:58:52.397Z,39.30
2022-08-28T16:01:21.208Z,39.30
2022-08-28T16:03:49.372Z,39.40
2022-08-28T16:06:19.088Z,39.50
2022-08-28T16:08:47.571Z,39.70
2022-08-28T16:11:16.488Z,39.80
2022-08-28T16:13:47.325Z,40.00
2022-08-28T16:16:17.294Z,40.10
2022-08-28T16:18:45.821Z,39.90
2022-08-28T16:21:14.392Z,39.60
2022-08-28T16:23:42.762Z,39.40
2022-08-28T16:26:11.215Z,39.50
2022-08-28T16:28:39.391Z,39.60
2022-08-28T16:31:08.191Z,39.80
2022-08-28T16:33:49.081Z,40.10
2022-08-28T16:36:18.686Z,40.30
2022-08-28T16:38:52.987Z,40.60
2022-08-28T16:41:28.763Z,40.90
2022-08-28T16:43:58.010Z,41.10
2022-08-28T16:46:28.074Z,41.30
2022-08-28T16:48:58.064Z,41.70
2022-08-28T16:51:27.204Z,42.00
2022-08-28T16:53:57.984Z,42.20
2022-08-28T16:56:26.767Z,42.40
2022-08-28T16:58:55.177Z,42.40
2022-08-28T17:01:24.617Z,42.80
2022-08-28T17:03:54.626Z,43.00
2022-08-28T17:06:28.661Z,43.20
2022-08-28T17:08:59.556Z,43.40
2022-08-28T17:11:31.135Z,45.70
2022-08-28T17:14:00.631Z,44.70
2022-08-28T17:16:29.717Z,44.10
2022-08-28T17:18:58.363Z,44.00
2022-08-28T17:21:45.915Z,44.00
2022-08-28T17:24:14.350Z,44.10
2022-08-28T17:26:43.732Z,44.20
2022-08-28T17:29:13.956Z,44.10
2022-08-28T17:31:42.156Z,44.30
2022-08-28T17:34:10.670Z,44.20
2022-08-28T17:36:41.304Z,44.40
2022-08-28T17:39:11.987Z,44.50
2022-08-28T17:41:41.354Z,44.50
2022-08-28T17:44:11.817Z,44.60
2022-08-28T17:46:39.955Z,44.80
2022-08-28T17:49:09.199Z,44.80
2022-08-28T17:51:43.295Z,44.80
2022-08-28T17:54:14.013Z,44.80
2022-08-28T17:56:42.269Z,44.90
2022-08-28T17:59:11.108Z,44.80
2022-08-28T18:01:39.916Z,44.90
2022-08-28T18:04:09.140Z,45.20
2022-08-28T18:06:37.908Z,45.40
2022-08-28T18:09:06.953Z,45.70
2022-08-28T18:11:37.531Z,45.70
2022-08-28T18:14:06.004Z,45.70
2022-08-28T18:16:36.639Z,45.90
2022-08-28T18:19:10.273Z,46.00
2022-08-28T18:21:40.097Z,46.10
2022-08-28T18:24:08.961Z,46.30
2022-08-28T18:26:38.706Z,46.40
2022-08-28T18:29:07.357Z,46.40
2022-08-28T18:31:35.778Z,46.50
2022-08-28T18:34:06.634Z,46.40
2022-08-28T18:36:35.043Z,46.40
2022-08-28T18:39:06.135Z,46.20
2022-08-28T18:41:43.250Z,46.40
2022-08-28T18:44:15.527Z,46.30
2022-08-28T18:46:44.832Z,46.60
2022-08-28T18:49:14.079Z,46.90
2022-08-28T18:51:43.797Z,47.00
2022-08-28T18:54:13.422Z,47.20
2022-08-28T18:56:41.900Z,47.30
2022-08-28T18:59:11.428Z,47.40
2022-08-28T19:01:41.303Z,50.00
2022-08-28T19:04:09.846Z,51.10
2022-08-28T19:06:38.201Z,51.70
2022-08-28T19:09:06.766Z,51.60
2022-08-28T19:11:37.318Z,51.50
2022-08-28T19:14:05.964Z,51.50
2022-08-28T19:16:36.531Z,51.40
2022-08-28T19:19:08.913Z,51.50
2022-08-28T19:21:40.271Z,51.50
2022-08-28T19:24:08.871Z,51.40
2022-08-28T19:26:38.670Z,51.40
2022-08-28T19:29:07.360Z,51.40
2022-08-28T19:31:38.089Z,51.60
2022-08-28T19:34:11.352Z,51.70
2022-08-28T19:36:40.933Z,51.90
2022-08-28T19:39:09.325Z,52.00
2022-08-28T19:41:38.273Z,52.30
2022-08-28T19:44:07.447Z,52.40
2022-08-28T19:46:37.665Z,52.60
2022-08-28T19:49:06.853Z,52.60
2022-08-28T19:51:37.705Z,52.80
2022-08-28T19:54:06.651Z,53.00
2022-08-28T19:56:35.707Z,53.30
2022-08-28T19:59:06.208Z,53.60
2022-08-28T20:01:37.802Z,53.90
2022-08-28T20:04:13.462Z,54.10
2022-08-28T20:06:43.474Z,54.30
2022-08-28T20:09:13.067Z,54.50
2022-08-28T20:11:42.225Z,54.60
2022-08-28T20:14:10.380Z,52.10
2022-08-28T20:16:41.785Z,50.80
2022-08-28T20:19:12.565Z,50.50
2022-08-28T20:21:45.232Z,50.70
2022-08-28T20:24:20.401Z,50.90
2022-08-28T20:26:48.988Z,51.20
2022-08-28T20:29:17.977Z,51.50
2022-08-28T20:31:49.053Z,51.70
2022-08-28T20:34:18.951Z,52.00
2022-08-28T20:36:51.197Z,52.20
2022-08-28T20:39:20.480Z,52.40
2022-08-28T20:41:49.786Z,52.50
2022-08-28T20:44:22.599Z,52.50
2022-08-28T20:46:51.039Z,52.70
2022-08-28T20:49:22.207Z,52.70
2022-08-28T20:51:57.561Z,52.90
2022-08-28T20:54:30.108Z,53.10
2022-08-28T20:57:03.032Z,53.30
2022-08-28T20:59:39.603Z,53.50
2022-08-28T21:02:10.998Z,53.70
2022-08-28T21:04:40.441Z,53.90
2022-08-28T21:07:14.016Z,54.10
2022-08-28T21:10:04.387Z,54.30
2022-08-28T21:12:31.203Z,54.40
2022-08-28T21:14:59.929Z,54.40
2022-08-28T21:17:29.839Z,54.50
2022-08-28T21:20:00.471Z,54.60
2022-08-28T21:22:31.665Z,54.70
2022-08-28T21:25:00.119Z,54.80
2022-08-28T21:27:28.815Z,55.00
2022-08-28T21:29:58.331Z,55.20
2022-08-28T21:32:27.252Z,55.50
2022-08-28T21:34:55.707Z,55.80
2022-08-28T21:37:24.845Z,56.00
2022-08-28T21:39:56.651Z,56.20
2022-08-28T21:42:25.315Z,56.30
2022-08-28T21:44:54.685Z,56.30
2022-08-28T21:47:24.248Z,56.50
2022-08-28T21:49:54.231Z,56.60
2022-08-28T21:52:24.598Z,56.70
2022-08-28T21:55:00.232Z,56.80
2022-08-28T21:57:29.787Z,56.90
2022-08-28T21:59:58.655Z,56.90
2022-08-28T22:02:29.732Z,57.00
2022-08-28T22:04:58.055Z,57.10
2022-08-28T22:07:26.396Z,57.10
2022-08-28T22:09:54.656Z,57.20
2022-08-28T22:12:24.426Z,57.10
2022-08-28T22:14:52.744Z,57.10
2022-08-28T22:17:20.989Z,57.10
2022-08-28T22:19:49.292Z,57.20
2022-08-28T22:22:37.605Z,57.40
2022-08-28T22:25:09.045Z,57.50
2022-08-28T22:27:38.745Z,57.50
2022-08-28T22:30:07.706Z,57.60
2022-08-28T22:32:36.019Z,57.70
2022-08-28T22:35:04.507Z,57.80
2022-08-28T22:37:33.069Z,58.00
2022-08-28T22:40:01.390Z,58.10
2022-08-28T22:42:30.028Z,58.10
2022-08-28T22:44:59.957Z,58.30
2022-08-28T22:47:28.596Z,58.30
2022-08-28T22:49:59.626Z,58.40
2022-08-28T22:52:28.283Z,58.40
2022-08-28T22:54:56.553Z,58.50
2022-08-28T22:57:27.426Z,58.70
2022-08-28T22:59:55.951Z,58.80
2022-08-28T23:02:27.291Z,58.90
2022-08-28T23:04:55.634Z,59.00
2022-08-28T23:07:23.940Z,59.10
2022-08-28T23:09:52.256Z,58.80
2022-08-28T23:12:20.667Z,59.30
2022-08-28T23:14:49.032Z,59.60
2022-08-28T23:17:18.674Z,59.80
2022-08-28T23:19:49.131Z,60.00
2022-08-28T23:22:19.274Z,60.30
2022-08-28T23:24:48.806Z,60.40
2022-08-28T23:27:36.326Z,60.70
2022-08-28T23:30:06.933Z,61.00
2022-08-28T23:32:37.462Z,61.20
2022-08-28T23:35:09.085Z,61.30
2022-08-28T23:37:45.537Z,61.50
2022-08-28T23:40:19.026Z,61.60
2022-08-28T23:42:48.177Z,61.70
2022-08-28T23:45:17.920Z,61.80
2022-08-28T23:47:49.633Z,61.90
2022-08-28T23:50:21.467Z,62.20
2022-08-28T23:52:50.825Z,62.40
2022-08-28T23:55:21.008Z,62.50
2022-08-28T23:57:52.324Z,62.60
